sensor_id;sensor_type;location;lat;lon;timestamp;P1;durP1;ratioP1;P2;durP2;ratioP2
64799;SDS011;51233;51.982;4.594;2023-03-20T00:02:40;7.22;;;4.05;;
64799;SDS011;51233;51.982;4.594;2023-03-20T00:05:40;7.05;;;3.60;;
64799;SDS011;51233;51.982;4.594;2023-03-20T00:08:41;8.23;;;4.13;;
64799;SDS011;51233;51.982;4.594;2023-03-20T00:11:48;6.90;;;4.07;;
64799;SDS011;51233;51.982;4.594;2023-03-20T00:14:48;9.15;;;4.43;;
64799;SDS011;51233;51.982;4.594;2023-03-20T00:17:49;11.38;;;4.15;;
64799;SDS011;51233;51.982;4.594;2023-03-20T00:20:50;7.93;;;4.40;;
64799;SDS011;51233;51.982;4.594;2023-03-20T00:23:51;9.33;;;4.30;;
64799;SDS011;51233;51.982;4.594;2023-03-20T00:26:52;10.87;;;4.40;;
64799;SDS011;51233;51.982;4.594;2023-03-20T00:29:52;6.87;;;4.07;;
64799;SDS011;51233;51.982;4.594;2023-03-20T00:32:53;11.75;;;4.90;;
64799;SDS011;51233;51.982;4.594;2023-03-20T00:35:53;7.75;;;4.60;;
64799;SDS011;51233;51.982;4.594;2023-03-20T00:38:54;10.87;;;4.90;;
64799;SDS011;51233;51.982;4.594;2023-03-20T00:41:57;8.68;;;4.97;;
64799;SDS011;51233;51.982;4.594;2023-03-20T00:44:59;8.30;;;4.72;;
64799;SDS011;51233;51.982;4.594;2023-03-20T00:48:01;9.45;;;4.95;;
64799;SDS011;51233;51.982;4.594;2023-03-20T00:51:02;11.70;;;5.22;;
64799;SDS011;51233;51.982;4.594;2023-03-20T00:54:11;10.38;;;4.68;;
64799;SDS011;51233;51.982;4.594;2023-03-20T00:57:16;8.63;;;4.22;;
64799;SDS011;51233;51.982;4.594;2023-03-20T01:00:20;7.72;;;4.35;;
64799;SDS011;51233;51.982;4.594;2023-03-20T01:03:23;7.18;;;4.63;;
64799;SDS011;51233;51.982;4.594;2023-03-20T01:06:28;9.95;;;4.88;;
64799;SDS011;51233;51.982;4.594;2023-03-20T01:09:30;9.45;;;5.90;;
64799;SDS011;51233;51.982;4.594;2023-03-20T01:12:30;10.60;;;5.30;;
64799;SDS011;51233;51.982;4.594;2023-03-20T01:15:31;10.55;;;5.70;;
64799;SDS011;51233;51.982;4.594;2023-03-20T01:18:32;9.73;;;5.87;;
64799;SDS011;51233;51.982;4.594;2023-03-20T01:21:36;11.38;;;5.82;;
64799;SDS011;51233;51.982;4.594;2023-03-20T01:24:36;12.20;;;5.70;;
64799;SDS011;51233;51.982;4.594;2023-03-20T01:27:37;9.75;;;6.38;;
64799;SDS011;51233;51.982;4.594;2023-03-20T01:30:37;13.67;;;7.17;;
64799;SDS011;51233;51.982;4.594;2023-03-20T01:33:37;9.77;;;6.17;;
64799;SDS011;51233;51.982;4.594;2023-03-20T01:36:37;14.27;;;6.83;;
64799;SDS011;51233;51.982;4.594;2023-03-20T01:39:38;12.23;;;5.87;;
64799;SDS011;51233;51.982;4.594;2023-03-20T01:42:42;11.23;;;6.68;;
64799;SDS011;51233;51.982;4.594;2023-03-20T01:46:42;12.95;;;5.95;;
64799;SDS011;51233;51.982;4.594;2023-03-20T01:52:18;12.52;;;6.63;;
64799;SDS011;51233;51.982;4.594;2023-03-20T01:55:18;9.80;;;6.18;;
64799;SDS011;51233;51.982;4.594;2023-03-20T01:58:21;12.33;;;6.23;;
64799;SDS011;51233;51.982;4.594;2023-03-20T02:01:23;8.60;;;5.43;;
64799;SDS011;51233;51.982;4.594;2023-03-20T02:04:30;8.63;;;5.80;;
64799;SDS011;51233;51.982;4.594;2023-03-20T02:07:32;11.18;;;5.95;;
64799;SDS011;51233;51.982;4.594;2023-03-20T02:10:33;9.97;;;5.90;;
64799;SDS011;51233;51.982;4.594;2023-03-20T02:13:33;9.32;;;5.82;;
64799;SDS011;51233;51.982;4.594;2023-03-20T02:16:34;9.20;;;5.67;;
64799;SDS011;51233;51.982;4.594;2023-03-20T02:22:58;10.77;;;5.90;;
64799;SDS011;51233;51.982;4.594;2023-03-20T02:29:24;11.13;;;6.30;;
64799;SDS011;51233;51.982;4.594;2023-03-20T02:35:44;13.20;;;7.45;;
64799;SDS011;51233;51.982;4.594;2023-03-20T02:41:56;15.13;;;8.07;;
64799;SDS011;51233;51.982;4.594;2023-03-20T02:51:10;13.57;;;7.25;;
64799;SDS011;51233;51.982;4.594;2023-03-20T02:57:19;14.50;;;8.48;;
64799;SDS011;51233;51.982;4.594;2023-03-20T03:00:24;11.32;;;7.65;;
64799;SDS011;51233;51.982;4.594;2023-03-20T03:03:32;12.88;;;7.18;;
64799;SDS011;51233;51.982;4.594;2023-03-20T03:06:35;11.65;;;7.32;;
64799;SDS011;51233;51.982;4.594;2023-03-20T03:09:40;14.18;;;7.30;;
64799;SDS011;51233;51.982;4.594;2023-03-20T03:12:42;11.23;;;7.20;;
64799;SDS011;51233;51.982;4.594;2023-03-20T03:15:47;12.95;;;6.38;;
64799;SDS011;51233;51.982;4.594;2023-03-20T03:18:49;13.18;;;6.95;;
64799;SDS011;51233;51.982;4.594;2023-03-20T03:21:51;11.73;;;7.13;;
64799;SDS011;51233;51.982;4.594;2023-03-20T03:24:52;14.60;;;7.93;;
64799;SDS011;51233;51.982;4.594;2023-03-20T03:27:59;10.68;;;7.47;;
64799;SDS011;51233;51.982;4.594;2023-03-20T03:30:59;10.80;;;6.22;;
64799;SDS011;51233;51.982;4.594;2023-03-20T03:34:01;13.00;;;6.65;;
64799;SDS011;51233;51.982;4.594;2023-03-20T03:37:02;11.23;;;7.07;;
64799;SDS011;51233;51.982;4.594;2023-03-20T03:40:17;12.43;;;7.20;;
64799;SDS011;51233;51.982;4.594;2023-03-20T03:43:21;13.60;;;7.25;;
64799;SDS011;51233;51.982;4.594;2023-03-20T03:46:25;12.38;;;7.63;;
64799;SDS011;51233;51.982;4.594;2023-03-20T03:49:28;12.35;;;7.78;;
64799;SDS011;51233;51.982;4.594;2023-03-20T03:52:29;10.82;;;6.97;;
64799;SDS011;51233;51.982;4.594;2023-03-20T03:55:32;8.95;;;6.35;;
64799;SDS011;51233;51.982;4.594;2023-03-20T03:58:35;12.32;;;7.10;;
64799;SDS011;51233;51.982;4.594;2023-03-20T04:01:36;9.20;;;6.18;;
64799;SDS011;51233;51.982;4.594;2023-03-20T04:04:38;8.20;;;6.15;;
64799;SDS011;51233;51.982;4.594;2023-03-20T04:07:43;9.93;;;6.88;;
64799;SDS011;51233;51.982;4.594;2023-03-20T04:10:43;10.90;;;6.72;;
64799;SDS011;51233;51.982;4.594;2023-03-20T04:13:45;10.07;;;6.75;;
64799;SDS011;51233;51.982;4.594;2023-03-20T04:16:49;13.20;;;6.68;;
64799;SDS011;51233;51.982;4.594;2023-03-20T04:19:50;9.88;;;6.82;;
64799;SDS011;51233;51.982;4.594;2023-03-20T04:22:50;12.65;;;7.10;;
64799;SDS011;51233;51.982;4.594;2023-03-20T04:25:50;13.98;;;7.28;;
64799;SDS011;51233;51.982;4.594;2023-03-20T04:28:50;9.63;;;6.00;;
64799;SDS011;51233;51.982;4.594;2023-03-20T04:31:51;9.02;;;6.25;;
64799;SDS011;51233;51.982;4.594;2023-03-20T04:34:51;9.07;;;5.57;;
64799;SDS011;51233;51.982;4.594;2023-03-20T04:37:54;12.75;;;6.30;;
64799;SDS011;51233;51.982;4.594;2023-03-20T04:40:54;7.63;;;5.97;;
64799;SDS011;51233;51.982;4.594;2023-03-20T04:43:54;7.47;;;5.70;;
64799;SDS011;51233;51.982;4.594;2023-03-20T04:46:55;12.45;;;6.78;;
64799;SDS011;51233;51.982;4.594;2023-03-20T04:49:55;9.90;;;6.53;;
64799;SDS011;51233;51.982;4.594;2023-03-20T04:52:55;12.50;;;6.30;;
64799;SDS011;51233;51.982;4.594;2023-03-20T04:55:55;11.75;;;6.25;;
64799;SDS011;51233;51.982;4.594;2023-03-20T04:58:56;11.45;;;6.63;;
64799;SDS011;51233;51.982;4.594;2023-03-20T05:01:56;12.63;;;7.23;;
64799;SDS011;51233;51.982;4.594;2023-03-20T05:04:56;11.25;;;7.40;;
64799;SDS011;51233;51.982;4.594;2023-03-20T05:07:56;12.10;;;7.93;;
64799;SDS011;51233;51.982;4.594;2023-03-20T05:10:56;10.95;;;6.95;;
64799;SDS011;51233;51.982;4.594;2023-03-20T05:13:56;10.12;;;7.36;;
64799;SDS011;51233;51.982;4.594;2023-03-20T05:16:57;13.10;;;6.28;;
64799;SDS011;51233;51.982;4.594;2023-03-20T05:20:00;13.20;;;7.83;;
64799;SDS011;51233;51.982;4.594;2023-03-20T05:23:01;16.45;;;7.18;;
64799;SDS011;51233;51.982;4.594;2023-03-20T05:26:01;10.75;;;6.97;;
64799;SDS011;51233;51.982;4.594;2023-03-20T05:29:01;10.05;;;6.85;;
64799;SDS011;51233;51.982;4.594;2023-03-20T05:32:01;11.57;;;6.68;;
64799;SDS011;51233;51.982;4.594;2023-03-20T05:35:02;9.48;;;6.43;;
64799;SDS011;51233;51.982;4.594;2023-03-20T05:38:09;8.13;;;6.05;;
64799;SDS011;51233;51.982;4.594;2023-03-20T05:41:10;12.27;;;6.35;;
64799;SDS011;51233;51.982;4.594;2023-03-20T05:44:10;10.77;;;7.03;;
64799;SDS011;51233;51.982;4.594;2023-03-20T05:47:10;12.28;;;6.74;;
64799;SDS011;51233;51.982;4.594;2023-03-20T05:50:10;13.47;;;6.63;;
64799;SDS011;51233;51.982;4.594;2023-03-20T05:53:11;11.57;;;6.32;;
64799;SDS011;51233;51.982;4.594;2023-03-20T05:56:11;18.05;;;7.30;;
64799;SDS011;51233;51.982;4.594;2023-03-20T05:59:11;9.88;;;5.90;;
64799;SDS011;51233;51.982;4.594;2023-03-20T06:02:11;10.68;;;6.32;;
64799;SDS011;51233;51.982;4.594;2023-03-20T06:05:11;12.65;;;6.10;;
64799;SDS011;51233;51.982;4.594;2023-03-20T06:08:11;11.93;;;6.40;;
64799;SDS011;51233;51.982;4.594;2023-03-20T06:11:12;13.27;;;6.07;;
64799;SDS011;51233;51.982;4.594;2023-03-20T06:14:12;12.65;;;6.10;;
64799;SDS011;51233;51.982;4.594;2023-03-20T06:17:12;9.25;;;5.90;;
64799;SDS011;51233;51.982;4.594;2023-03-20T06:20:13;13.13;;;6.32;;
64799;SDS011;51233;51.982;4.594;2023-03-20T06:23:13;14.83;;;5.93;;
64799;SDS011;51233;51.982;4.594;2023-03-20T06:26:13;15.00;;;6.53;;
64799;SDS011;51233;51.982;4.594;2023-03-20T06:29:13;13.76;;;5.76;;
64799;SDS011;51233;51.982;4.594;2023-03-20T06:32:13;14.23;;;5.15;;
64799;SDS011;51233;51.982;4.594;2023-03-20T06:35:16;14.88;;;6.28;;
64799;SDS011;51233;51.982;4.594;2023-03-20T06:38:17;10.05;;;4.72;;
64799;SDS011;51233;51.982;4.594;2023-03-20T06:41:17;11.53;;;6.03;;
64799;SDS011;51233;51.982;4.594;2023-03-20T06:44:17;11.52;;;5.38;;
64799;SDS011;51233;51.982;4.594;2023-03-20T06:47:18;9.88;;;5.60;;
64799;SDS011;51233;51.982;4.594;2023-03-20T06:50:18;12.32;;;5.50;;
64799;SDS011;51233;51.982;4.594;2023-03-20T06:53:18;10.70;;;5.18;;
64799;SDS011;51233;51.982;4.594;2023-03-20T06:56:18;14.48;;;5.97;;
64799;SDS011;51233;51.982;4.594;2023-03-20T06:59:18;11.27;;;5.07;;
64799;SDS011;51233;51.982;4.594;2023-03-20T07:02:19;12.27;;;5.30;;
64799;SDS011;51233;51.982;4.594;2023-03-20T07:05:19;10.40;;;5.10;;
64799;SDS011;51233;51.982;4.594;2023-03-20T07:08:20;12.30;;;4.65;;
64799;SDS011;51233;51.982;4.594;2023-03-20T07:11:20;12.75;;;4.85;;
64799;SDS011;51233;51.982;4.594;2023-03-20T07:14:21;13.70;;;4.93;;
64799;SDS011;51233;51.982;4.594;2023-03-20T07:17:21;8.98;;;4.70;;
64799;SDS011;51233;51.982;4.594;2023-03-20T07:20:22;12.80;;;4.47;;
64799;SDS011;51233;51.982;4.594;2023-03-20T07:23:22;16.40;;;5.53;;
64799;SDS011;51233;51.982;4.594;2023-03-20T07:26:22;10.63;;;5.20;;
64799;SDS011;51233;51.982;4.594;2023-03-20T07:29:23;12.64;;;5.34;;
64799;SDS011;51233;51.982;4.594;2023-03-20T07:32:23;8.23;;;4.33;;
64799;SDS011;51233;51.982;4.594;2023-03-20T07:35:23;10.30;;;4.32;;
64799;SDS011;51233;51.982;4.594;2023-03-20T07:38:26;12.48;;;4.70;;
64799;SDS011;51233;51.982;4.594;2023-03-20T07:41:26;11.63;;;4.32;;
64799;SDS011;51233;51.982;4.594;2023-03-20T07:44:26;4.20;;;2.90;;
64799;SDS011;51233;51.982;4.594;2023-03-20T07:47:26;12.88;;;4.68;;
64799;SDS011;51233;51.982;4.594;2023-03-20T07:50:27;9.65;;;4.15;;
64799;SDS011;51233;51.982;4.594;2023-03-20T07:53:27;11.82;;;4.35;;
64799;SDS011;51233;51.982;4.594;2023-03-20T07:56:27;7.77;;;3.27;;
64799;SDS011;51233;51.982;4.594;2023-03-20T07:59:27;8.73;;;4.22;;
64799;SDS011;51233;51.982;4.594;2023-03-20T08:02:27;11.05;;;4.15;;
64799;SDS011;51233;51.982;4.594;2023-03-20T08:05:28;11.40;;;4.23;;
64799;SDS011;51233;51.982;4.594;2023-03-20T08:08:29;7.97;;;4.03;;
64799;SDS011;51233;51.982;4.594;2023-03-20T08:11:29;9.60;;;3.38;;
64799;SDS011;51233;51.982;4.594;2023-03-20T08:14:29;9.32;;;3.42;;
64799;SDS011;51233;51.982;4.594;2023-03-20T08:17:33;11.35;;;4.20;;
64799;SDS011;51233;51.982;4.594;2023-03-20T08:20:33;9.85;;;3.88;;
64799;SDS011;51233;51.982;4.594;2023-03-20T08:23:33;13.43;;;4.20;;
64799;SDS011;51233;51.982;4.594;2023-03-20T08:26:33;11.93;;;4.63;;
64799;SDS011;51233;51.982;4.594;2023-03-20T08:29:33;11.38;;;3.63;;
64799;SDS011;51233;51.982;4.594;2023-03-20T08:32:34;10.57;;;4.00;;
64799;SDS011;51233;51.982;4.594;2023-03-20T08:35:35;9.77;;;3.28;;
64799;SDS011;51233;51.982;4.594;2023-03-20T08:38:35;8.82;;;3.47;;
64799;SDS011;51233;51.982;4.594;2023-03-20T08:41:36;10.23;;;4.00;;
64799;SDS011;51233;51.982;4.594;2023-03-20T08:44:38;8.60;;;3.55;;
64799;SDS011;51233;51.982;4.594;2023-03-20T08:47:38;14.00;;;4.50;;
64799;SDS011;51233;51.982;4.594;2023-03-20T08:50:38;9.95;;;4.30;;
64799;SDS011;51233;51.982;4.594;2023-03-20T08:53:38;11.40;;;4.20;;
64799;SDS011;51233;51.982;4.594;2023-03-20T08:56:39;12.85;;;4.97;;
64799;SDS011;51233;51.982;4.594;2023-03-20T08:59:39;11.93;;;4.20;;
64799;SDS011;51233;51.982;4.594;2023-03-20T09:02:39;11.98;;;5.13;;
64799;SDS011;51233;51.982;4.594;2023-03-20T09:05:40;10.02;;;4.75;;
64799;SDS011;51233;51.982;4.594;2023-03-20T09:08:42;11.40;;;4.85;;
64799;SDS011;51233;51.982;4.594;2023-03-20T09:11:42;11.82;;;4.82;;
64799;SDS011;51233;51.982;4.594;2023-03-20T09:14:43;11.63;;;5.35;;
64799;SDS011;51233;51.982;4.594;2023-03-20T09:17:46;14.70;;;5.25;;
64799;SDS011;51233;51.982;4.594;2023-03-20T09:20:46;13.88;;;5.97;;
64799;SDS011;51233;51.982;4.594;2023-03-20T09:23:47;11.70;;;5.13;;
64799;SDS011;51233;51.982;4.594;2023-03-20T09:26:48;12.04;;;5.50;;
64799;SDS011;51233;51.982;4.594;2023-03-20T09:29:48;14.40;;;5.78;;
64799;SDS011;51233;51.982;4.594;2023-03-20T09:32:49;14.90;;;5.50;;
64799;SDS011;51233;51.982;4.594;2023-03-20T09:35:50;10.73;;;5.30;;
64799;SDS011;51233;51.982;4.594;2023-03-20T09:38:50;12.43;;;5.53;;
64799;SDS011;51233;51.982;4.594;2023-03-20T09:41:50;11.02;;;5.45;;
64799;SDS011;51233;51.982;4.594;2023-03-20T09:44:53;14.52;;;6.20;;
64799;SDS011;51233;51.982;4.594;2023-03-20T09:47:59;10.15;;;5.82;;
64799;SDS011;51233;51.982;4.594;2023-03-20T09:54:40;13.80;;;6.07;;
64799;SDS011;51233;51.982;4.594;2023-03-20T09:57:45;12.80;;;5.90;;
64799;SDS011;51233;51.982;4.594;2023-03-20T10:00:46;8.57;;;5.10;;
64799;SDS011;51233;51.982;4.594;2023-03-20T10:03:51;13.00;;;6.18;;
64799;SDS011;51233;51.982;4.594;2023-03-20T10:06:52;14.02;;;6.40;;
64799;SDS011;51233;51.982;4.594;2023-03-20T10:09:52;14.52;;;6.25;;
64799;SDS011;51233;51.982;4.594;2023-03-20T10:13:06;10.57;;;6.40;;
64799;SDS011;51233;51.982;4.594;2023-03-20T10:16:26;16.13;;;7.20;;
64799;SDS011;51233;51.982;4.594;2023-03-20T10:19:29;13.85;;;5.50;;
64799;SDS011;51233;51.982;4.594;2023-03-20T10:25:31;14.60;;;6.57;;
64799;SDS011;51233;51.982;4.594;2023-03-20T10:31:55;14.05;;;6.53;;
64799;SDS011;51233;51.982;4.594;2023-03-20T10:35:15;13.40;;;5.68;;
64799;SDS011;51233;51.982;4.594;2023-03-20T10:38:30;16.05;;;5.65;;
64799;SDS011;51233;51.982;4.594;2023-03-20T10:41:34;17.27;;;6.20;;
64799;SDS011;51233;51.982;4.594;2023-03-20T10:44:37;12.63;;;5.93;;
64799;SDS011;51233;51.982;4.594;2023-03-20T10:47:38;15.25;;;6.85;;
64799;SDS011;51233;51.982;4.594;2023-03-20T10:50:41;15.05;;;6.45;;
64799;SDS011;51233;51.982;4.594;2023-03-20T10:53:46;13.55;;;6.00;;
64799;SDS011;51233;51.982;4.594;2023-03-20T10:56:47;10.98;;;6.10;;
64799;SDS011;51233;51.982;4.594;2023-03-20T10:59:49;12.50;;;5.30;;
64799;SDS011;51233;51.982;4.594;2023-03-20T11:02:50;21.25;;;6.88;;
64799;SDS011;51233;51.982;4.594;2023-03-20T11:06:04;14.50;;;6.40;;
64799;SDS011;51233;51.982;4.594;2023-03-20T11:09:15;12.65;;;5.38;;
64799;SDS011;51233;51.982;4.594;2023-03-20T11:12:19;14.68;;;6.68;;
64799;SDS011;51233;51.982;4.594;2023-03-20T11:15:53;20.05;;;6.53;;
64799;SDS011;51233;51.982;4.594;2023-03-20T11:18:46;14.45;;;5.70;;
64799;SDS011;51233;51.982;4.594;2023-03-20T11:24:51;13.25;;;5.97;;
64799;SDS011;51233;51.982;4.594;2023-03-20T11:30:57;19.67;;;6.63;;
64799;SDS011;51233;51.982;4.594;2023-03-20T11:34:08;14.45;;;5.22;;
64799;SDS011;51233;51.982;4.594;2023-03-20T11:37:20;15.82;;;6.13;;
64799;SDS011;51233;51.982;4.594;2023-03-20T11:40:22;13.55;;;6.53;;
64799;SDS011;51233;51.982;4.594;2023-03-20T11:43:26;19.02;;;6.72;;
64799;SDS011;51233;51.982;4.594;2023-03-20T11:46:27;19.20;;;6.60;;
64799;SDS011;51233;51.982;4.594;2023-03-20T11:49:27;14.45;;;6.93;;
64799;SDS011;51233;51.982;4.594;2023-03-20T11:52:32;14.27;;;6.80;;
64799;SDS011;51233;51.982;4.594;2023-03-20T11:55:33;14.70;;;6.15;;
64799;SDS011;51233;51.982;4.594;2023-03-20T11:58:34;12.95;;;5.57;;
64799;SDS011;51233;51.982;4.594;2023-03-20T12:01:37;14.95;;;6.22;;
64799;SDS011;51233;51.982;4.594;2023-03-20T12:04:42;15.80;;;6.47;;
64799;SDS011;51233;51.982;4.594;2023-03-20T12:07:45;20.30;;;6.65;;
64799;SDS011;51233;51.982;4.594;2023-03-20T12:10:49;18.20;;;6.90;;
64799;SDS011;51233;51.982;4.594;2023-03-20T12:13:52;16.70;;;6.32;;
64799;SDS011;51233;51.982;4.594;2023-03-20T12:16:58;15.43;;;5.78;;
64799;SDS011;51233;51.982;4.594;2023-03-20T12:20:35;16.65;;;6.22;;
64799;SDS011;51233;51.982;4.594;2023-03-20T12:23:30;14.35;;;6.18;;
64799;SDS011;51233;51.982;4.594;2023-03-20T12:26:35;10.85;;;4.68;;
64799;SDS011;51233;51.982;4.594;2023-03-20T12:29:58;15.52;;;6.15;;
64799;SDS011;51233;51.982;4.594;2023-03-20T12:33:03;12.63;;;5.60;;
64799;SDS011;51233;51.982;4.594;2023-03-20T12:36:10;12.18;;;5.30;;
64799;SDS011;51233;51.982;4.594;2023-03-20T12:39:13;12.75;;;5.63;;
64799;SDS011;51233;51.982;4.594;2023-03-20T12:45:19;12.15;;;5.13;;
64799;SDS011;51233;51.982;4.594;2023-03-20T12:51:45;13.93;;;5.90;;
64799;SDS011;51233;51.982;4.594;2023-03-20T13:01:38;11.25;;;5.43;;
64799;SDS011;51233;51.982;4.594;2023-03-20T13:04:46;7.47;;;4.53;;
64799;SDS011;51233;51.982;4.594;2023-03-20T13:16:52;11.07;;;5.18;;
64799;SDS011;51233;51.982;4.594;2023-03-20T13:26:02;7.53;;;4.82;;
64799;SDS011;51233;51.982;4.594;2023-03-20T13:29:17;10.68;;;5.13;;
64799;SDS011;51233;51.982;4.594;2023-03-20T13:35:58;6.80;;;4.00;;
64799;SDS011;51233;51.982;4.594;2023-03-20T13:39:02;8.43;;;4.70;;
64799;SDS011;51233;51.982;4.594;2023-03-20T13:42:16;7.97;;;4.72;;
64799;SDS011;51233;51.982;4.594;2023-03-20T13:45:23;8.65;;;4.03;;
64799;SDS011;51233;51.982;4.594;2023-03-20T13:48:28;5.40;;;4.30;;
64799;SDS011;51233;51.982;4.594;2023-03-20T14:01:05;6.80;;;3.80;;
64799;SDS011;51233;51.982;4.594;2023-03-20T14:04:13;5.28;;;4.28;;
64799;SDS011;51233;51.982;4.594;2023-03-20T14:10:44;5.22;;;4.03;;
64799;SDS011;51233;51.982;4.594;2023-03-20T14:13:46;5.25;;;4.18;;
64799;SDS011;51233;51.982;4.594;2023-03-20T14:16:46;6.35;;;4.63;;
64799;SDS011;51233;51.982;4.594;2023-03-20T14:19:47;7.27;;;4.07;;
64799;SDS011;51233;51.982;4.594;2023-03-20T14:22:51;10.15;;;4.00;;
64799;SDS011;51233;51.982;4.594;2023-03-20T14:25:52;6.32;;;4.50;;
64799;SDS011;51233;51.982;4.594;2023-03-20T14:35:24;7.55;;;4.40;;
64799;SDS011;51233;51.982;4.594;2023-03-20T14:38:26;9.93;;;5.45;;
64799;SDS011;51233;51.982;4.594;2023-03-20T14:47:50;8.60;;;5.28;;
64799;SDS011;51233;51.982;4.594;2023-03-20T14:53:54;10.27;;;5.73;;
64799;SDS011;51233;51.982;4.594;2023-03-20T14:57:09;13.38;;;5.38;;
64799;SDS011;51233;51.982;4.594;2023-03-20T15:00:19;11.88;;;5.32;;
64799;SDS011;51233;51.982;4.594;2023-03-20T15:03:20;13.60;;;5.88;;
64799;SDS011;51233;51.982;4.594;2023-03-20T15:06:20;11.32;;;5.70;;
64799;SDS011;51233;51.982;4.594;2023-03-20T15:09:21;10.75;;;4.90;;
64799;SDS011;51233;51.982;4.594;2023-03-20T15:12:23;10.82;;;5.18;;
64799;SDS011;51233;51.982;4.594;2023-03-20T15:15:28;11.75;;;4.75;;
64799;SDS011;51233;51.982;4.594;2023-03-20T15:18:35;5.93;;;4.38;;
64799;SDS011;51233;51.982;4.594;2023-03-20T15:21:36;10.63;;;5.45;;
64799;SDS011;51233;51.982;4.594;2023-03-20T15:24:37;11.80;;;5.00;;
64799;SDS011;51233;51.982;4.594;2023-03-20T15:27:41;11.68;;;5.32;;
64799;SDS011;51233;51.982;4.594;2023-03-20T15:30:41;10.98;;;4.97;;
64799;SDS011;51233;51.982;4.594;2023-03-20T15:33:42;15.77;;;5.82;;
64799;SDS011;51233;51.982;4.594;2023-03-20T15:36:42;12.65;;;5.75;;
64799;SDS011;51233;51.982;4.594;2023-03-20T15:39:44;11.90;;;5.20;;
64799;SDS011;51233;51.982;4.594;2023-03-20T15:42:50;10.27;;;5.25;;
64799;SDS011;51233;51.982;4.594;2023-03-20T15:45:51;10.43;;;4.68;;
64799;SDS011;51233;51.982;4.594;2023-03-20T15:48:53;10.32;;;4.82;;
64799;SDS011;51233;51.982;4.594;2023-03-20T15:51:57;10.02;;;5.57;;
64799;SDS011;51233;51.982;4.594;2023-03-20T15:54:59;9.10;;;4.57;;
64799;SDS011;51233;51.982;4.594;2023-03-20T15:58:02;10.93;;;5.20;;
64799;SDS011;51233;51.982;4.594;2023-03-20T16:01:03;8.35;;;4.93;;
64799;SDS011;51233;51.982;4.594;2023-03-20T16:04:04;7.57;;;4.90;;
64799;SDS011;51233;51.982;4.594;2023-03-20T16:07:04;6.45;;;3.80;;
64799;SDS011;51233;51.982;4.594;2023-03-20T16:10:14;5.63;;;3.65;;
64799;SDS011;51233;51.982;4.594;2023-03-20T16:13:15;8.90;;;4.15;;
64799;SDS011;51233;51.982;4.594;2023-03-20T16:16:20;6.40;;;3.95;;
64799;SDS011;51233;51.982;4.594;2023-03-20T16:19:21;7.55;;;4.13;;
64799;SDS011;51233;51.982;4.594;2023-03-20T16:22:26;5.53;;;3.85;;
64799;SDS011;51233;51.982;4.594;2023-03-20T16:25:27;5.30;;;3.47;;
64799;SDS011;51233;51.982;4.594;2023-03-20T16:28:30;8.40;;;4.10;;
64799;SDS011;51233;51.982;4.594;2023-03-20T16:31:32;6.15;;;3.60;;
64799;SDS011;51233;51.982;4.594;2023-03-20T16:34:35;6.75;;;3.97;;
64799;SDS011;51233;51.982;4.594;2023-03-20T16:37:40;8.88;;;4.18;;
64799;SDS011;51233;51.982;4.594;2023-03-20T16:40:44;4.30;;;2.90;;
64799;SDS011;51233;51.982;4.594;2023-03-20T16:43:45;5.38;;;2.47;;
64799;SDS011;51233;51.982;4.594;2023-03-20T16:46:57;7.57;;;2.30;;
64799;SDS011;51233;51.982;4.594;2023-03-20T16:53:02;5.82;;;2.20;;
64799;SDS011;51233;51.982;4.594;2023-03-20T16:56:03;3.97;;;2.15;;
64799;SDS011;51233;51.982;4.594;2023-03-20T16:59:10;3.45;;;2.00;;
64799;SDS011;51233;51.982;4.594;2023-03-20T17:02:11;4.15;;;2.42;;
64799;SDS011;51233;51.982;4.594;2023-03-20T17:05:19;6.57;;;3.00;;
64799;SDS011;51233;51.982;4.594;2023-03-20T17:08:23;7.97;;;3.13;;
64799;SDS011;51233;51.982;4.594;2023-03-20T17:11:31;6.95;;;3.00;;
64799;SDS011;51233;51.982;4.594;2023-03-20T17:14:32;7.93;;;2.97;;
64799;SDS011;51233;51.982;4.594;2023-03-20T17:17:35;5.35;;;3.08;;
64799;SDS011;51233;51.982;4.594;2023-03-20T17:20:35;7.00;;;3.55;;
64799;SDS011;51233;51.982;4.594;2023-03-20T17:23:35;8.27;;;3.88;;
64799;SDS011;51233;51.982;4.594;2023-03-20T17:26:36;6.17;;;3.60;;
64799;SDS011;51233;51.982;4.594;2023-03-20T17:29:37;5.32;;;3.58;;
64799;SDS011;51233;51.982;4.594;2023-03-20T17:32:37;8.80;;;3.75;;
64799;SDS011;51233;51.982;4.594;2023-03-20T17:35:37;5.38;;;4.00;;
64799;SDS011;51233;51.982;4.594;2023-03-20T17:38:37;4.93;;;3.40;;
64799;SDS011;51233;51.982;4.594;2023-03-20T17:41:38;5.27;;;3.77;;
64799;SDS011;51233;51.982;4.594;2023-03-20T17:44:38;8.35;;;3.90;;
64799;SDS011;51233;51.982;4.594;2023-03-20T17:47:38;5.60;;;3.90;;
64799;SDS011;51233;51.982;4.594;2023-03-20T17:50:39;6.47;;;4.05;;
64799;SDS011;51233;51.982;4.594;2023-03-20T17:53:39;6.07;;;4.03;;
64799;SDS011;51233;51.982;4.594;2023-03-20T17:56:39;5.63;;;3.35;;
64799;SDS011;51233;51.982;4.594;2023-03-20T17:59:41;5.18;;;3.20;;
64799;SDS011;51233;51.982;4.594;2023-03-20T18:02:41;7.22;;;2.90;;
64799;SDS011;51233;51.982;4.594;2023-03-20T18:05:41;6.07;;;3.03;;
64799;SDS011;51233;51.982;4.594;2023-03-20T18:08:41;3.00;;;2.70;;
64799;SDS011;51233;51.982;4.594;2023-03-20T18:11:41;3.67;;;2.13;;
64799;SDS011;51233;51.982;4.594;2023-03-20T18:14:42;2.07;;;1.87;;
64799;SDS011;51233;51.982;4.594;2023-03-20T18:17:43;2.53;;;1.60;;
64799;SDS011;51233;51.982;4.594;2023-03-20T18:20:43;2.15;;;1.60;;
64799;SDS011;51233;51.982;4.594;2023-03-20T18:23:44;2.15;;;1.88;;
64799;SDS011;51233;51.982;4.594;2023-03-20T18:26:44;2.13;;;1.63;;
64799;SDS011;51233;51.982;4.594;2023-03-20T18:29:45;1.92;;;1.50;;
64799;SDS011;51233;51.982;4.594;2023-03-20T18:32:45;4.05;;;2.00;;
64799;SDS011;51233;51.982;4.594;2023-03-20T18:35:46;1.70;;;1.60;;
64799;SDS011;51233;51.982;4.594;2023-03-20T18:38:46;2.97;;;2.35;;
64799;SDS011;51233;51.982;4.594;2023-03-20T18:41:47;8.80;;;7.35;;
64799;SDS011;51233;51.982;4.594;2023-03-20T18:44:47;3.63;;;2.92;;
64799;SDS011;51233;51.982;4.594;2023-03-20T18:47:47;4.22;;;2.85;;
64799;SDS011;51233;51.982;4.594;2023-03-20T18:50:51;2.60;;;2.40;;
64799;SDS011;51233;51.982;4.594;2023-03-20T18:53:52;2.58;;;2.38;;
64799;SDS011;51233;51.982;4.594;2023-03-20T18:56:53;3.10;;;2.80;;
64799;SDS011;51233;51.982;4.594;2023-03-20T18:59:58;2.65;;;2.20;;
64799;SDS011;51233;51.982;4.594;2023-03-20T19:02:59;4.85;;;2.50;;
64799;SDS011;51233;51.982;4.594;2023-03-20T19:05:59;2.40;;;2.20;;
64799;SDS011;51233;51.982;4.594;2023-03-20T19:09:00;4.56;;;2.80;;
64799;SDS011;51233;51.982;4.594;2023-03-20T19:12:01;2.70;;;2.50;;
64799;SDS011;51233;51.982;4.594;2023-03-20T19:15:01;4.20;;;2.72;;
64799;SDS011;51233;51.982;4.594;2023-03-20T19:18:02;3.00;;;2.80;;
64799;SDS011;51233;51.982;4.594;2023-03-20T19:21:03;2.28;;;2.17;;
64799;SDS011;51233;51.982;4.594;2023-03-20T19:24:04;2.78;;;2.58;;
64799;SDS011;51233;51.982;4.594;2023-03-20T19:27:05;5.47;;;3.10;;
64799;SDS011;51233;51.982;4.594;2023-03-20T19:30:05;3.58;;;3.28;;
64799;SDS011;51233;51.982;4.594;2023-03-20T19:33:06;4.13;;;3.40;;
64799;SDS011;51233;51.982;4.594;2023-03-20T19:36:06;3.50;;;3.20;;
64799;SDS011;51233;51.982;4.594;2023-03-20T19:39:09;3.23;;;3.03;;
64799;SDS011;51233;51.982;4.594;2023-03-20T19:42:10;3.72;;;3.47;;
64799;SDS011;51233;51.982;4.594;2023-03-20T19:45:10;4.10;;;3.80;;
64799;SDS011;51233;51.982;4.594;2023-03-20T19:48:15;4.05;;;3.67;;
64799;SDS011;51233;51.982;4.594;2023-03-20T19:51:19;3.67;;;3.38;;
64799;SDS011;51233;51.982;4.594;2023-03-20T19:54:20;3.50;;;3.20;;
64799;SDS011;51233;51.982;4.594;2023-03-20T19:57:20;4.10;;;3.80;;